Time;durP1;ratioP1;P1;durP2;ratioP2;P2;SDS_P1;SDS_P2;PMS_P1;PMS_P2;Temp;Humidity;BMP_temperature;BMP_pressure;BME280_temperature;BME280_humidity;BME280_pressure;Samples;Min_cycle;Max_cycle;Signal;HPM_P1;HPM_P2
2021/04/19 00:00:10;;;;;;;3.10;2.15;;;22.40;29.60;;;;;;5083512;28;20059;-52
2021/04/19 00:02:36;;;;;;;2.85;2.10;;;22.40;29.60;;;;;;5066787;28;20039;-55
2021/04/19 00:05:05;;;;;;;3.67;2.38;;;22.50;29.60;;;;;;5068752;28;20324;-52
2021/04/19 00:07:30;;;;;;;3.53;2.22;;;22.50;29.60;;;;;;5066735;28;20165;-55
2021/04/19 00:09:56;;;;;;;3.67;2.47;;;22.40;29.60;;;;;;5082701;28;20481;-59
2021/04/19 00:12:22;;;;;;;2.95;1.98;;;22.40;30.00;;;;;;5084012;28;20039;-58
2021/04/19 00:14:48;;;;;;;3.25;2.40;;;22.40;29.60;;;;;;5074078;28;20033;-55
2021/04/19 00:17:13;;;;;;;1.95;1.52;;;22.40;29.60;;;;;;5068579;28;20031;-52
2021/04/19 00:19:39;;;;;;;3.00;2.28;;;22.40;29.60;;;;;;5077861;28;20037;-54
2021/04/19 00:22:05;;;;;;;3.92;2.10;;;22.40;29.60;;;;;;5077899;28;20027;-55
2021/04/19 00:24:31;;;;;;;2.67;1.70;;;22.40;29.60;;;;;;5060129;28;20039;-52
2021/04/19 00:26:57;;;;;;;2.30;1.70;;;22.50;29.60;;;;;;5080624;28;20038;-58
2021/04/19 00:29:23;;;;;;;2.63;1.88;;;22.50;29.60;;;;;;5079639;28;20100;-56
2021/04/19 00:31:48;;;;;;;2.72;2.20;;;22.50;29.60;;;;;;5081234;28;20471;-59
2021/04/19 00:34:14;;;;;;;1.98;1.55;;;22.50;29.60;;;;;;5086568;28;20027;-60
2021/04/19 00:36:40;;;;;;;2.67;1.90;;;22.50;29.60;;;;;;5079733;28;20499;-53
2021/04/19 00:39:06;;;;;;;2.22;1.70;;;22.50;29.50;;;;;;5057186;28;20029;-57
2021/04/19 00:41:32;;;;;;;2.35;1.77;;;22.50;29.50;;;;;;5077157;28;20094;-53
2021/04/19 00:43:58;;;;;;;3.00;1.88;;;22.60;29.50;;;;;;5087441;28;20040;-59
2021/04/19 00:46:24;;;;;;;2.00;1.67;;;22.60;29.50;;;;;;5079491;28;20033;-58
2021/04/19 00:48:50;;;;;;;2.30;1.77;;;22.60;29.50;;;;;;5062225;28;20058;-57
2021/04/19 00:51:16;;;;;;;3.00;1.90;;;22.60;29.50;;;;;;5077243;28;20107;-57
2021/04/19 00:53:42;;;;;;;2.83;1.77;;;22.60;29.50;;;;;;5083239;28;20024;-50
2021/04/19 00:56:09;;;;;;;2.88;1.70;;;22.60;29.50;;;;;;5091460;28;20447;-58
2021/04/19 00:58:37;;;;;;;1.80;1.45;;;22.60;29.50;;;;;;5077808;28;20077;-60
2021/04/19 01:01:05;;;;;;;2.30;1.60;;;22.60;29.50;;;;;;5076342;28;20107;-58
2021/04/19 01:03:31;;;;;;;2.03;1.58;;;22.60;29.50;;;;;;5086637;28;20016;-58
2021/04/19 01:05:58;;;;;;;2.17;1.60;;;22.60;29.50;;;;;;5080518;28;20511;-59
2021/04/19 01:08:26;;;;;;;1.98;1.50;;;22.60;29.50;;;;;;5067265;28;20024;-52
2021/04/19 01:10:52;;;;;;;3.22;1.90;;;22.60;29.50;;;;;;5057740;28;20121;-56
2021/04/19 01:13:18;;;;;;;2.25;1.40;;;22.60;29.50;;;;;;5066582;28;20457;-55
2021/04/19 01:15:44;;;;;;;1.70;1.33;;;22.60;29.50;;;;;;5065541;28;20107;-55
2021/04/19 01:18:12;;;;;;;1.90;1.38;;;22.60;29.50;;;;;;5086500;28;20035;-56
2021/04/19 01:20:45;;;;;;;2.03;1.52;;;22.60;29.50;;;;;;5076929;28;20082;-53
2021/04/19 01:23:12;;;;;;;2.25;1.50;;;22.60;29.90;;;;;;5077292;28;20500;-49
2021/04/19 01:25:39;;;;;;;1.60;1.50;;;22.60;29.50;;;;;;5047649;28;20024;-52
2021/04/19 01:28:08;;;;;;;2.05;1.60;;;22.50;29.40;;;;;;5063301;28;20036;-48
2021/04/19 01:30:39;;;;;;;2.50;1.33;;;22.60;29.50;;;;;;5076942;28;20032;-50
2021/04/19 01:33:06;;;;;;;2.22;1.55;;;22.60;29.50;;;;;;5070336;28;20028;-51
2021/04/19 01:35:33;;;;;;;2.05;1.60;;;22.60;29.50;;;;;;5066090;28;20028;-50
2021/04/19 01:37:59;;;;;;;2.20;1.50;;;22.60;29.50;;;;;;5082188;28;20029;-52
2021/04/19 01:40:27;;;;;;;2.25;1.50;;;22.60;29.40;;;;;;5078024;28;20037;-56
2021/04/19 01:42:54;;;;;;;1.92;1.50;;;22.60;29.40;;;;;;5075435;28;20027;-55
2021/04/19 01:45:20;;;;;;;2.33;1.70;;;22.60;29.40;;;;;;5065301;28;20410;-58
2021/04/19 01:47:46;;;;;;;1.80;1.40;;;22.60;29.40;;;;;;5065226;28;20375;-57
2021/04/19 01:50:19;;;;;;;2.42;1.30;;;22.50;29.40;;;;;;5081902;28;20058;-56
2021/04/19 01:52:48;;;;;;;1.40;1.10;;;22.60;29.50;;;;;;5070878;28;20337;-53
2021/04/19 01:55:17;;;;;;;2.70;1.58;;;22.60;29.50;;;;;;5056907;28;20051;-49
2021/04/19 01:57:50;;;;;;;2.40;1.50;;;22.50;29.40;;;;;;5067979;28;20333;-56
2021/04/19 02:00:19;;;;;;;2.75;1.40;;;22.50;29.40;;;;;;5068511;28;20443;-53
2021/04/19 02:03:14;;;;;;;1.67;1.30;;;22.50;29.40;;;;;;5076778;28;20029;-54
2021/04/19 02:05:57;;;;;;;2.22;1.40;;;22.50;29.40;;;;;;5055614;28;20021;-55
2021/04/19 02:08:23;;;;;;;2.60;1.50;;;22.50;29.40;;;;;;5063175;28;20082;-52
2021/04/19 02:11:24;;;;;;;3.00;1.38;;;22.50;29.40;;;;;;5069719;28;20028;-54
2021/04/19 02:14:16;;;;;;;1.50;1.13;;;22.50;29.30;;;;;;5056277;28;20455;-55
2021/04/19 02:17:13;;;;;;;2.08;1.45;;;22.50;29.40;;;;;;5063174;28;20050;-51
2021/04/19 02:19:48;;;;;;;1.65;1.35;;;22.50;29.30;;;;;;5060378;28;20380;-57
2021/04/19 02:22:20;;;;;;;1.88;1.20;;;22.50;29.40;;;;;;5089281;28;20040;-60
2021/04/19 02:24:51;;;;;;;1.95;1.30;;;22.50;29.40;;;;;;5061430;28;20035;-54
2021/04/19 02:27:27;;;;;;;1.67;1.25;;;22.50;29.40;;;;;;5060674;28;20176;-60
2021/04/19 02:30:01;;;;;;;1.63;1.23;;;22.50;29.40;;;;;;5061397;28;20037;-51
2021/04/19 02:32:34;;;;;;;2.28;1.35;;;22.50;29.40;;;;;;5067465;28;20033;-56
2021/04/19 02:35:04;;;;;;;2.83;1.65;;;22.50;29.40;;;;;;5068770;28;20031;-56
2021/04/19 02:37:31;;;;;;;1.80;1.50;;;22.40;29.40;;;;;;5066550;28;20039;-56
2021/04/19 02:39:59;;;;;;;1.80;1.35;;;22.50;29.50;;;;;;5056343;28;20451;-59
2021/04/19 02:42:27;;;;;;;1.70;1.50;;;22.40;29.40;;;;;;5055699;28;20032;-58
2021/04/19 02:44:54;;;;;;;2.35;1.60;;;22.40;29.40;;;;;;5048325;28;20033;-54
2021/04/19 02:47:41;;;;;;;1.98;1.20;;;22.50;29.40;;;;;;5069764;28;20044;-57
2021/04/19 02:50:18;;;;;;;1.83;1.20;;;22.40;29.30;;;;;;5061051;28;20428;-58
2021/04/19 02:52:46;;;;;;;2.55;1.50;;;22.40;29.40;;;;;;5079514;28;20032;-54
2021/04/19 02:55:13;;;;;;;1.30;1.20;;;22.40;29.40;;;;;;5096430;28;20050;-58
2021/04/19 02:57:52;;;;;;;1.80;1.30;;;22.40;29.30;;;;;;5075474;28;20016;-57
2021/04/19 03:00:21;;;;;;;2.35;1.20;;;22.40;29.30;;;;;;5076660;28;20032;-57
2021/04/19 03:02:51;;;;;;;1.55;1.20;;;22.40;29.30;;;;;;5063187;28;20048;-58
2021/04/19 03:05:18;;;;;;;1.90;1.35;;;22.40;29.40;;;;;;5079154;28;20355;-54
2021/04/19 03:07:55;;;;;;;1.88;1.30;;;22.40;29.30;;;;;;5062421;28;20036;-53
2021/04/19 03:10:22;;;;;;;1.60;1.13;;;22.40;29.30;;;;;;5077414;28;20473;-53
2021/04/19 03:12:55;;;;;;;1.20;1.10;;;22.40;29.30;;;;;;5092471;28;20032;-55
2021/04/19 03:15:27;;;;;;;2.95;1.58;;;22.40;29.30;;;;;;5066071;28;20037;-58
2021/04/19 03:18:11;;;;;;;1.65;1.45;;;22.40;29.30;;;;;;5059919;28;20028;-60
2021/04/19 03:21:07;;;;;;;1.83;1.40;;;22.40;29.30;;;;;;5055382;28;20336;-59
2021/04/19 03:23:49;;;;;;;2.22;1.35;;;22.40;29.30;;;;;;5078846;28;20339;-59
2021/04/19 03:26:26;;;;;;;1.85;1.35;;;22.40;29.30;;;;;;5073202;28;20332;-57
2021/04/19 03:28:54;;;;;;;1.75;1.20;;;22.40;29.30;;;;;;5093582;28;20039;-59
2021/04/19 03:31:40;;;;;;;2.03;1.30;;;22.40;29.30;;;;;;5059361;28;20432;-56
2021/04/19 03:34:18;;;;;;;2.17;1.02;;;22.40;29.30;;;;;;5017220;28;20358;-59
2021/04/19 03:36:48;;;;;;;2.85;1.27;;;22.40;29.30;;;;;;5011867;28;20488;-58
2021/04/19 03:39:15;;;;;;;1.67;1.20;;;22.40;29.30;;;;;;5016363;28;20128;-55
2021/04/19 03:41:46;;;;;;;1.77;1.13;;;22.40;29.30;;;;;;5001281;28;20065;-59
2021/04/19 03:44:17;;;;;;;1.95;1.20;;;22.30;29.30;;;;;;5014849;28;20049;-56
2021/04/19 03:46:44;;;;;;;2.10;1.23;;;22.40;29.40;;;;;;5001068;28;20335;-53
2021/04/19 03:49:24;;;;;;;1.73;1.20;;;22.40;29.40;;;;;;5026756;28;20060;-56
2021/04/19 03:52:04;;;;;;;2.88;1.38;;;22.30;29.30;;;;;;5015598;28;20428;-59
2021/04/19 03:54:34;;;;;;;1.83;1.30;;;22.30;29.30;;;;;;4997083;28;20045;-56
2021/04/19 03:57:03;;;;;;;2.10;1.30;;;22.30;29.30;;;;;;5008286;28;20057;-55
2021/04/19 03:59:31;;;;;;;1.95;1.30;;;22.30;29.30;;;;;;5001965;28;20048;-60
2021/04/19 04:02:06;;;;;;;2.35;1.10;;;22.30;29.30;;;;;;5014583;28;20034;-55
2021/04/19 04:04:51;;;;;;;2.83;1.30;;;22.30;29.30;;;;;;5040545;28;20044;-54
2021/04/19 04:07:26;;;;;;;1.65;1.40;;;22.30;29.40;;;;;;5031769;28;20049;-53
2021/04/19 04:09:56;;;;;;;1.17;1.08;;;22.30;29.40;;;;;;5028295;28;20137;-54
2021/04/19 04:12:22;;;;;;;2.17;1.45;;;22.30;29.40;;;;;;5047549;28;20163;-52
2021/04/19 04:14:54;;;;;;;1.40;1.20;;;22.30;29.40;;;;;;5023398;28;20453;-57
2021/04/19 04:17:26;;;;;;;1.40;1.10;;;22.30;29.40;;;;;;5018446;28;20033;-57
2021/04/19 04:20:07;;;;;;;1.60;1.10;;;22.30;29.40;;;;;;5029893;28;20057;-55
2021/04/19 04:22:42;;;;;;;1.60;1.20;;;22.30;29.40;;;;;;5001394;28;20048;-54
2021/04/19 04:25:09;;;;;;;1.75;1.20;;;22.30;29.50;;;;;;5017668;28;20042;-52
2021/04/19 04:27:36;;;;;;;2.13;1.20;;;22.30;29.50;;;;;;5036434;28;20041;-59
2021/04/19 04:30:03;;;;;;;2.05;1.45;;;22.30;29.50;;;;;;5026807;28;20029;-57
2021/04/19 04:32:39;;;;;;;1.42;1.20;;;22.30;29.50;;;;;;5036217;28;20549;-53
2021/04/19 04:35:20;;;;;;;1.65;1.20;;;22.30;29.50;;;;;;5016994;28;20107;-59
2021/04/19 04:37:57;;;;;;;1.50;1.10;;;22.20;29.50;;;;;;5032402;28;20044;-58
2021/04/19 04:40:33;;;;;;;1.42;1.15;;;22.20;29.50;;;;;;5065974;28;20034;-54
2021/04/19 04:43:13;;;;;;;1.98;1.27;;;22.20;29.50;;;;;;5081672;28;20039;-55
2021/04/19 04:45:40;;;;;;;1.23;1.13;;;22.20;29.50;;;;;;5093539;28;20036;-60
2021/04/19 04:48:26;;;;;;;2.58;1.30;;;22.20;29.50;;;;;;5069064;28;20331;-58
2021/04/19 04:51:00;;;;;;;1.85;1.10;;;22.20;29.50;;;;;;5073804;28;20028;-57
2021/04/19 04:53:32;;;;;;;1.60;1.20;;;22.20;29.60;;;;;;5081698;28;20054;-57
2021/04/19 04:56:00;;;;;;;1.65;1.48;;;22.20;29.60;;;;;;5060830;28;20196;-59
2021/04/19 04:58:28;;;;;;;2.35;1.30;;;22.20;29.70;;;;;;5085154;28;20064;-52
2021/04/19 05:00:55;;;;;;;2.22;1.30;;;22.20;29.70;;;;;;5080027;28;20069;-55
2021/04/19 05:03:23;;;;;;;1.55;1.35;;;22.20;29.70;;;;;;5070052;28;20044;-56
2021/04/19 05:05:50;;;;;;;2.00;1.40;;;22.20;29.80;;;;;;5083185;28;20116;-55
2021/04/19 05:08:16;;;;;;;2.00;1.33;;;22.20;29.80;;;;;;5084104;28;20036;-57
2021/04/19 05:10:43;;;;;;;1.77;1.23;;;22.20;29.80;;;;;;5066651;28;20028;-56
2021/04/19 05:13:16;;;;;;;1.92;1.45;;;22.20;29.80;;;;;;5057618;28;20043;-56
2021/04/19 05:15:44;;;;;;;1.52;1.08;;;22.20;29.90;;;;;;5051262;28;20032;-55
2021/04/19 05:18:14;;;;;;;1.50;1.27;;;22.20;29.90;;;;;;5094715;28;20028;-53
2021/04/19 05:20:40;;;;;;;2.75;1.45;;;22.20;29.90;;;;;;5085938;28;20016;-57
2021/04/19 05:23:06;;;;;;;2.28;1.40;;;22.20;29.90;;;;;;5075787;28;20028;-57
2021/04/19 05:25:33;;;;;;;2.08;1.30;;;22.20;30.00;;;;;;5084963;28;20107;-59
2021/04/19 05:28:00;;;;;;;2.45;1.58;;;22.20;30.00;;;;;;5090337;28;20051;-58
2021/04/19 05:30:29;;;;;;;1.60;1.20;;;22.20;30.00;;;;;;5087881;28;20047;-56
2021/04/19 05:32:57;;;;;;;2.15;1.27;;;22.20;30.00;;;;;;5062739;28;20050;-58
2021/04/19 05:35:23;;;;;;;1.58;1.20;;;22.20;30.00;;;;;;5084732;28;20039;-56
2021/04/19 05:37:50;;;;;;;1.70;1.30;;;22.20;30.00;;;;;;5094480;28;20115;-58
2021/04/19 05:40:19;;;;;;;2.40;1.23;;;22.20;30.00;;;;;;5082864;28;20131;-55
2021/04/19 05:42:45;;;;;;;1.70;1.30;;;22.20;30.10;;;;;;5060778;28;20051;-53
2021/04/19 05:45:15;;;;;;;2.38;1.38;;;22.20;30.10;;;;;;5089100;28;20038;-58
2021/04/19 05:47:47;;;;;;;1.77;1.05;;;22.20;30.10;;;;;;5080048;28;20351;-55
2021/04/19 05:50:14;;;;;;;1.90;1.40;;;22.20;30.10;;;;;;5077157;28;20116;-59
2021/04/19 05:52:41;;;;;;;1.80;1.38;;;22.20;30.10;;;;;;5090867;28;20039;-55
2021/04/19 05:55:08;;;;;;;1.65;1.23;;;22.10;30.10;;;;;;5076623;28;20037;-58
2021/04/19 05:57:47;;;;;;;2.17;1.40;;;22.20;30.20;;;;;;5085619;28;20055;-56
2021/04/19 06:00:22;;;;;;;2.40;1.30;;;22.20;30.20;;;;;;5060706;28;20024;-54
2021/04/19 06:03:03;;;;;;;1.40;1.02;;;22.20;30.20;;;;;;5081936;28;20107;-58
2021/04/19 06:05:33;;;;;;;2.55;1.40;;;22.10;30.20;;;;;;5061027;28;20020;-55
2021/04/19 06:08:05;;;;;;;1.23;1.00;;;22.20;30.30;;;;;;5073339;28;20051;-61
2021/04/19 06:11:00;;;;;;;2.42;1.40;;;22.20;30.40;;;;;;5079369;28;20050;-56
2021/04/19 06:13:37;;;;;;;1.75;1.20;;;22.10;30.40;;;;;;5066688;28;20024;-58
2021/04/19 06:16:04;;;;;;;1.63;1.20;;;22.10;30.40;;;;;;5057352;28;20432;-57
2021/04/19 06:18:32;;;;;;;1.45;1.20;;;22.10;30.50;;;;;;5081458;28;20043;-55
2021/04/19 06:21:01;;;;;;;1.40;1.30;;;22.10;30.60;;;;;;5080432;28;20061;-54
2021/04/19 06:23:27;;;;;;;2.78;1.13;;;22.10;30.60;;;;;;5085910;28;20093;-59
2021/04/19 06:25:54;;;;;;;1.98;1.25;;;22.10;30.60;;;;;;5081985;28;20111;-55
2021/04/19 06:28:24;;;;;;;2.03;1.40;;;22.10;30.60;;;;;;5083644;28;20389;-52
2021/04/19 06:30:51;;;;;;;2.25;1.23;;;22.20;30.70;;;;;;5090033;28;20122;-56
2021/04/19 06:33:19;;;;;;;3.20;1.70;;;22.20;30.70;;;;;;5091776;28;20041;-59
2021/04/19 06:35:45;;;;;;;1.60;1.10;;;22.10;30.70;;;;;;5068348;28;20090;-60
2021/04/19 06:38:11;;;;;;;2.10;1.50;;;22.10;30.70;;;;;;5086183;28;20032;-54
2021/04/19 06:40:39;;;;;;;2.22;1.27;;;22.10;30.70;;;;;;5073689;28;20044;-50
2021/04/19 06:43:06;;;;;;;1.27;1.15;;;22.10;30.70;;;;;;5095878;28;20028;-58
2021/04/19 06:45:33;;;;;;;3.50;1.35;;;22.10;30.70;;;;;;5095407;28;20028;-52
2021/04/19 06:48:03;;;;;;;3.55;1.50;;;22.10;30.70;;;;;;5095999;28;20197;-55
2021/04/19 06:50:29;;;;;;;1.92;1.25;;;22.10;30.70;;;;;;5070109;28;20032;-57
2021/04/19 06:52:55;;;;;;;3.47;1.38;;;22.10;30.80;;;;;;5080098;28;20032;-54
2021/04/19 06:55:24;;;;;;;1.85;1.40;;;22.10;30.90;;;;;;5064427;28;20405;-57
2021/04/19 06:57:54;;;;;;;1.73;1.40;;;22.10;30.90;;;;;;5059581;28;20082;-57
2021/04/19 07:00:25;;;;;;;1.73;1.30;;;22.20;31.00;;;;;;5073611;28;20106;-57
2021/04/19 07:02:53;;;;;;;1.52;1.00;;;22.20;31.00;;;;;;5081673;28;20031;-57
2021/04/19 07:05:34;;;;;;;1.83;1.40;;;22.20;31.00;;;;;;5084293;28;20036;-56
2021/04/19 07:08:29;;;;;;;1.50;1.40;;;22.20;31.00;;;;;;5084715;28;20107;-54
2021/04/19 07:11:01;;;;;;;1.55;1.13;;;22.30;30.90;;;;;;5075403;28;20056;-60
2021/04/19 07:13:29;;;;;;;1.08;0.98;;;22.30;30.90;;;;;;5077689;28;20037;-56
2021/04/19 07:15:55;;;;;;;1.30;1.20;;;22.40;30.90;;;;;;5058521;28;20040;-56
2021/04/19 07:18:21;;;;;;;2.10;1.38;;;22.40;30.90;;;;;;5069967;28;20043;-56
2021/04/19 07:20:47;;;;;;;2.20;1.40;;;22.40;30.90;;;;;;5080392;28;20071;-54
2021/04/19 07:23:14;;;;;;;2.40;1.30;;;22.50;30.90;;;;;;5077746;28;20028;-56
2021/04/19 07:25:41;;;;;;;3.20;1.40;;;22.50;31.00;;;;;;5084322;28;20447;-59
2021/04/19 07:28:07;;;;;;;2.20;1.58;;;22.50;31.00;;;;;;5083561;28;20024;-53
2021/04/19 07:30:33;;;;;;;1.60;1.33;;;22.50;31.10;;;;;;5096045;28;20035;-50
2021/04/19 07:33:02;;;;;;;1.50;1.40;;;22.60;31.10;;;;;;5084050;28;20019;-58
2021/04/19 07:35:33;;;;;;;1.65;1.33;;;22.60;31.10;;;;;;5080178;28;20044;-59
2021/04/19 07:38:03;;;;;;;1.88;1.35;;;22.60;31.20;;;;;;5075797;28;20051;-61
2021/04/19 07:40:36;;;;;;;2.70;1.30;;;22.60;31.20;;;;;;5059058;28;20040;-57
2021/04/19 07:43:16;;;;;;;1.67;1.45;;;22.70;31.30;;;;;;5090317;28;20424;-55
2021/04/19 07:45:59;;;;;;;1.60;1.10;;;22.60;31.30;;;;;;5081340;28;20077;-56
2021/04/19 07:48:31;;;;;;;2.72;1.63;;;22.70;32.10;;;;;;5059848;28;20068;-57
2021/04/19 07:50:58;;;;;;;2.40;1.48;;;22.60;32.20;;;;;;5048952;28;20025;-59
2021/04/19 07:53:24;;;;;;;1.35;1.10;;;22.60;31.70;;;;;;5062657;28;20356;-57
2021/04/19 07:55:52;;;;;;;1.52;1.42;;;22.60;31.80;;;;;;5080079;28;20357;-51
2021/04/19 07:58:22;;;;;;;1.83;1.55;;;22.60;31.90;;;;;;5064704;28;20164;-55
2021/04/19 08:00:50;;;;;;;2.65;1.35;;;22.70;32.20;;;;;;5084503;28;20222;-57
2021/04/19 08:03:20;;;;;;;2.42;1.30;;;22.70;32.20;;;;;;5086271;28;20081;-55
2021/04/19 08:05:51;;;;;;;1.58;1.20;;;22.70;32.30;;;;;;5079692;28;20438;-56
2021/04/19 08:08:34;;;;;;;1.80;1.30;;;22.70;32.30;;;;;;5085522;28;20419;-59
2021/04/19 08:11:08;;;;;;;1.33;1.08;;;22.70;32.40;;;;;;5085350;28;20367;-56
2021/04/19 08:13:34;;;;;;;;;;;22.70;32.40;;;;;;5081634;28;20027;-57
2021/04/19 08:16:26;;;;;;;1.23;0.82;;;22.60;32.30;;;;;;5085038;28;19916;-60
2021/04/19 08:19:04;;;;;;;1.95;1.20;;;22.60;32.30;;;;;;5075979;28;20036;-58
2021/04/19 08:21:31;;;;;;;1.40;1.00;;;22.60;32.40;;;;;;5087423;28;20058;-55
2021/04/19 08:24:19;;;;;;;1.25;1.08;;;22.60;32.40;;;;;;5071880;28;20029;-56
2021/04/19 08:26:54;;;;;;;1.33;1.15;;;22.60;32.40;;;;;;5071409;28;20037;-57
2021/04/19 08:29:43;;;;;;;1.13;1.02;;;22.60;32.50;;;;;;5081605;28;20388;-58
2021/04/19 08:32:09;;;;;;;1.80;1.40;;;22.60;32.50;;;;;;5070667;28;20028;-59
2021/04/19 08:34:38;;;;;;;1.90;1.50;;;22.60;33.30;;;;;;5079426;28;20024;-57
2021/04/19 08:37:07;;;;;;;1.67;1.20;;;22.60;32.70;;;;;;5084437;28;20089;-57
2021/04/19 08:39:34;;;;;;;1.95;1.00;;;22.60;32.70;;;;;;5079005;28;20350;-57
2021/04/19 08:42:01;;;;;;;2.53;1.27;;;22.60;32.70;;;;;;5089117;28;20032;-55
2021/04/19 08:44:35;;;;;;;1.38;0.90;;;22.60;32.70;;;;;;5077685;28;20036;-57
2021/04/19 08:47:03;;;;;;;1.63;1.10;;;22.60;32.70;;;;;;5059023;28;20359;-54
2021/04/19 08:49:30;;;;;;;2.53;1.50;;;22.60;32.80;;;;;;5061587;28;20032;-58
2021/04/19 08:51:56;;;;;;;1.20;1.00;;;22.70;33.00;;;;;;5061895;28;20444;-54
2021/04/19 08:54:22;;;;;;;2.38;1.40;;;22.60;33.00;;;;;;5062363;28;20071;-56
2021/04/19 08:56:49;;;;;;;1.77;1.30;;;22.60;33.20;;;;;;5060517;28;20080;-51
2021/04/19 08:59:16;;;;;;;1.73;1.40;;;22.60;33.30;;;;;;5058141;28;20510;-52
2021/04/19 09:01:44;;;;;;;1.20;1.10;;;22.70;33.40;;;;;;5070726;28;20043;-57
2021/04/19 09:04:10;;;;;;;1.33;1.23;;;22.70;33.40;;;;;;5074266;28;20036;-54
2021/04/19 09:06:40;;;;;;;4.88;1.75;;;22.70;33.30;;;;;;5056490;28;20123;-56
2021/04/19 09:09:06;;;;;;;0.98;0.93;;;22.80;33.30;;;;;;5058724;28;20040;-50
2021/04/19 09:11:32;;;;;;;2.25;1.25;;;22.80;33.30;;;;;;5094811;28;20049;-59
2021/04/19 09:14:06;;;;;;;2.65;1.23;;;22.70;33.30;;;;;;5085867;28;20156;-56
2021/04/19 09:16:37;;;;;;;1.73;1.58;;;22.70;33.50;;;;;;5054470;28;20047;-52
2021/04/19 09:19:04;;;;;;;1.23;1.13;;;22.70;33.60;;;;;;5061527;28;20024;-56
2021/04/19 09:21:48;;;;;;;1.17;1.08;;;22.70;33.70;;;;;;5074466;28;20075;-49
2021/04/19 09:24:17;;;;;;;0.90;0.90;;;22.70;33.80;;;;;;5075011;28;20028;-54
2021/04/19 09:27:01;;;;;;;1.45;1.23;;;22.70;33.80;;;;;;5075297;28;20285;-54
2021/04/19 09:29:34;;;;;;;1.77;1.10;;;22.80;33.80;;;;;;5082087;28;20356;-58
2021/04/19 09:32:03;;;;;;;2.95;1.08;;;22.80;33.80;;;;;;5074843;28;20024;-57
2021/04/19 09:34:41;;;;;;;1.30;1.05;;;22.80;33.70;;;;;;5081651;28;20028;-52
2021/04/19 09:37:09;;;;;;;1.15;1.05;;;22.80;33.60;;;;;;5092756;28;20043;-53
2021/04/19 09:39:52;;;;;;;3.00;1.23;;;22.90;33.70;;;;;;5074422;28;20384;-58
2021/04/19 09:42:39;;;;;;;0.98;0.88;;;22.90;33.60;;;;;;5060509;28;20546;-57
2021/04/19 09:45:05;;;;;;;1.20;0.90;;;22.90;33.50;;;;;;5092203;28;20393;-50
2021/04/19 09:47:48;;;;;;;0.98;0.80;;;22.90;33.50;;;;;;5089677;28;20016;-55
2021/04/19 09:50:16;;;;;;;1.30;0.85;;;23.00;33.60;;;;;;5085753;28;20067;-53
2021/04/19 09:52:46;;;;;;;1.65;1.10;;;23.00;33.50;;;;;;5080219;28;20035;-59
2021/04/19 09:55:13;;;;;;;1.48;0.90;;;23.00;33.40;;;;;;5077375;28;20123;-57
2021/04/19 09:57:39;;;;;;;1.00;0.90;;;23.00;34.00;;;;;;5082499;28;20454;-54
2021/04/19 10:00:07;;;;;;;1.38;1.20;;;23.10;33.40;;;;;;5080355;28;20036;-58
2021/04/19 10:02:34;;;;;;;1.40;1.00;;;23.00;33.40;;;;;;5095546;28;20063;-55
2021/04/19 10:05:02;;;;;;;1.20;1.08;;;23.00;33.30;;;;;;5090718;28;20024;-55
2021/04/19 10:07:30;;;;;;;1.45;1.35;;;23.10;33.30;;;;;;5084167;28;20467;-51
2021/04/19 10:09:59;;;;;;;0.75;0.75;;;23.10;33.30;;;;;;5081376;28;20032;-52
2021/04/19 10:12:27;;;;;;;1.60;0.90;;;23.10;33.30;;;;;;5081185;28;20028;-53
2021/04/19 10:14:53;;;;;;;1.30;1.00;;;23.10;33.30;;;;;;5084728;28;20092;-59
2021/04/19 10:17:22;;;;;;;1.00;0.90;;;23.10;33.30;;;;;;5064737;28;20371;-57
2021/04/19 10:19:48;;;;;;;1.15;1.05;;;23.20;33.30;;;;;;5099118;28;20024;-53
2021/04/19 10:22:17;;;;;;;0.80;0.80;;;23.20;33.40;;;;;;5081062;28;20043;-52
2021/04/19 10:24:49;;;;;;;1.00;0.90;;;23.20;33.30;;;;;;5082552;28;20128;-54
2021/04/19 10:27:26;;;;;;;0.93;0.82;;;23.20;33.30;;;;;;5089278;28;20039;-51
2021/04/19 10:29:54;;;;;;;1.20;1.08;;;23.20;33.30;;;;;;5084366;28;20019;-54
2021/04/19 10:32:30;;;;;;;2.83;1.45;;;23.20;33.10;;;;;;5093713;28;20047;-48
2021/04/19 10:34:57;;;;;;;1.13;1.02;;;23.20;33.10;;;;;;5100112;28;20435;-50
2021/04/19 10:37:23;;;;;;;0.82;0.80;;;23.20;33.10;;;;;;5095084;28;20028;-52
2021/04/19 10:39:50;;;;;;;1.40;0.90;;;23.20;33.70;;;;;;5087317;28;20034;-54
2021/04/19 10:42:23;;;;;;;1.08;0.98;;;23.20;33.10;;;;;;5098976;28;20032;-48
2021/04/19 10:44:50;;;;;;;1.33;1.00;;;23.20;33.10;;;;;;5087705;28;20083;-49
2021/04/19 10:47:27;;;;;;;0.90;0.70;;;23.20;33.00;;;;;;5081372;28;20036;-51
2021/04/19 10:49:53;;;;;;;1.17;0.93;;;23.20;33.10;;;;;;5060155;28;20479;-53
2021/04/19 10:52:19;;;;;;;0.90;0.80;;;23.20;33.10;;;;;;5089216;28;20020;-59
2021/04/19 10:54:46;;;;;;;1.00;0.90;;;23.30;33.10;;;;;;5084648;28;20103;-54
2021/04/19 10:57:23;;;;;;;0.90;0.80;;;23.30;33.10;;;;;;5084288;28;20032;-55
2021/04/19 10:59:51;;;;;;;0.80;0.80;;;23.30;33.10;;;;;;5088280;28;20426;-52
2021/04/19 11:02:22;;;;;;;0.90;0.90;;;23.30;33.00;;;;;;5086965;28;20028;-55
2021/04/19 11:04:48;;;;;;;1.10;1.00;;;23.30;33.00;;;;;;5087335;28;20039;-48
2021/04/19 11:07:37;;;;;;;3.05;1.00;;;23.30;33.10;;;;;;5083505;28;20074;-56
2021/04/19 11:10:16;;;;;;;0.82;0.82;;;23.30;33.10;;;;;;5080481;28;20687;-52
2021/04/19 11:12:58;;;;;;;1.08;0.98;;;23.30;33.00;;;;;;5077801;28;20032;-60
2021/04/19 11:15:46;;;;;;;0.80;0.80;;;23.30;33.00;;;;;;5072303;28;20051;-55
2021/04/19 11:18:24;;;;;;;0.95;0.82;;;23.30;33.00;;;;;;5070137;28;20372;-56
2021/04/19 11:20:52;;;;;;;0.88;0.77;;;23.30;33.00;;;;;;5068078;28;20062;-58
2021/04/19 11:23:28;;;;;;;0.80;0.80;;;23.30;33.00;;;;;;5069022;28;20043;-57
2021/04/19 11:25:57;;;;;;;0.98;0.88;;;23.30;33.00;;;;;;5072231;28;20399;-55
2021/04/19 11:28:34;;;;;;;0.70;0.70;;;23.30;33.00;;;;;;5074599;28;20031;-55
2021/04/19 11:31:15;;;;;;;1.10;1.00;;;23.30;33.00;;;;;;5066395;28;20055;-57
2021/04/19 11:33:42;;;;;;;0.70;0.70;;;23.40;33.00;;;;;;5070563;28;20029;-57
2021/04/19 11:36:09;;;;;;;1.52;1.13;;;23.30;32.90;;;;;;5044139;28;20440;-59
2021/04/19 11:38:36;;;;;;;0.95;0.88;;;23.30;32.90;;;;;;5069865;28;20028;-59
2021/04/19 11:41:06;;;;;;;0.68;0.68;;;23.40;32.90;;;;;;5070136;28;20063;-56
2021/04/19 11:43:34;;;;;;;0.98;0.70;;;23.40;32.90;;;;;;5074842;28;20032;-59
2021/04/19 11:46:12;;;;;;;0.70;0.70;;;23.30;32.80;;;;;;5084139;28;20032;-55
2021/04/19 11:48:45;;;;;;;2.35;0.63;;;23.30;32.80;;;;;;5065656;28;20036;-54
2021/04/19 11:51:14;;;;;;;0.85;0.85;;;23.30;32.80;;;;;;5073926;28;20051;-54
2021/04/19 11:53:42;;;;;;;0.98;0.80;;;23.30;32.80;;;;;;5068614;28;20028;-55
2021/04/19 11:56:10;;;;;;;0.77;0.73;;;23.30;32.80;;;;;;5071777;28;20040;-58
2021/04/19 11:58:43;;;;;;;0.68;0.65;;;23.30;32.80;;;;;;5069037;28;20381;-57
2021/04/19 12:01:11;;;;;;;1.60;0.95;;;23.30;32.80;;;;;;5082382;28;20356;-55
2021/04/19 12:03:38;;;;;;;0.80;0.80;;;23.30;32.70;;;;;;5087846;28;20031;-59
2021/04/19 12:06:09;;;;;;;0.98;0.70;;;23.30;32.70;;;;;;5087062;28;20407;-55
2021/04/19 12:08:36;;;;;;;1.10;0.75;;;23.30;32.70;;;;;;5082651;28;20039;-57
2021/04/19 12:11:03;;;;;;;0.77;0.60;;;23.30;32.70;;;;;;5076866;28;20398;-51
2021/04/19 12:13:29;;;;;;;0.73;0.70;;;23.30;32.70;;;;;;5083049;28;20107;-53
2021/04/19 12:15:55;;;;;;;0.80;0.75;;;23.40;32.60;;;;;;5085570;28;20170;-48
2021/04/19 12:18:24;;;;;;;1.10;1.00;;;23.30;32.60;;;;;;5080549;28;20032;-56
2021/04/19 12:20:53;;;;;;;0.88;0.80;;;23.40;32.60;;;;;;5085526;28;20105;-57
2021/04/19 12:23:19;;;;;;;0.80;0.80;;;23.30;32.50;;;;;;5075195;28;20129;-54
2021/04/19 12:25:50;;;;;;;1.95;0.90;;;23.30;32.50;;;;;;5075248;28;20352;-59
2021/04/19 12:28:22;;;;;;;1.05;0.85;;;23.30;32.50;;;;;;5078887;28;20078;-57
2021/04/19 12:30:55;;;;;;;0.80;0.80;;;23.30;32.40;;;;;;5083042;28;20465;-56
2021/04/19 12:33:21;;;;;;;0.80;0.70;;;23.30;32.30;;;;;;5095398;28;20508;-54
2021/04/19 12:35:48;;;;;;;0.88;0.70;;;23.30;32.30;;;;;;5087151;28;20036;-60
2021/04/19 12:38:14;;;;;;;0.80;0.80;;;23.30;32.30;;;;;;5084909;28;20032;-59
2021/04/19 12:40:42;;;;;;;1.00;0.90;;;23.30;32.20;;;;;;5094681;28;20358;-60
2021/04/19 12:43:10;;;;;;;0.73;0.70;;;23.30;32.20;;;;;;5086280;28;20138;-54
2021/04/19 12:45:36;;;;;;;1.10;1.00;;;23.30;32.10;;;;;;5090560;28;20135;-52
2021/04/19 12:48:05;;;;;;;1.13;0.93;;;23.30;32.10;;;;;;5059456;28;20050;-50
2021/04/19 12:50:31;;;;;;;1.05;0.90;;;23.30;32.10;;;;;;5088273;28;20455;-58
2021/04/19 12:52:58;;;;;;;1.08;0.98;;;23.30;32.00;;;;;;5077913;28;20033;-55
2021/04/19 12:55:43;;;;;;;0.88;0.82;;;23.30;32.10;;;;;;5090315;28;20509;-56
2021/04/19 12:58:11;;;;;;;1.33;0.73;;;23.30;32.20;;;;;;5084844;28;20477;-60
2021/04/19 13:00:37;;;;;;;2.10;0.85;;;23.30;32.20;;;;;;5086935;28;20111;-56
2021/04/19 13:03:04;;;;;;;1.13;0.80;;;23.30;32.20;;;;;;5082285;28;20107;-63
2021/04/19 13:05:30;;;;;;;0.98;0.88;;;23.40;32.30;;;;;;5074888;28;20032;-55